KBFL/BFL METAR and TAF weather

Enter ICAO airport designator
Station Type Date Time Source
KBFL METAR 2019/04/22 23:54 UTC NOAA

KBFL 222354Z 10SM CLR 27/03 A2997 RMK AO2 SLP146 T02720028 10278 20222 58020


Station Type Date Time Source
KBFL Decoded METAR 2019/04/22 23:54 UTC NOAA

BAKERSFIELD MEADOWS FIELD, CA, United States (KBFL) 35-26N 119-03W 151M
Apr 22, 2019 - 07:54 PM EDT / 2019.04.22 2354 UTC
Visibility: 10 mile(s):0
Sky conditions: clear
Temperature: 81.0 F (27.2 C)
Dew Point: 37.0 F (2.8 C)
Relative Humidity: 20%
Pressure (altimeter): 29.97 in. Hg (1014 hPa)
Pressure tendency: 0.06 inches (2.0 hPa) lower than three hours ago
ob: KBFL 222354Z 10SM CLR 27/03 A2997 RMK AO2 SLP146 T02720028 10278 20222 58020
cycle: 0

Station Type Date Time Source
KBFL TAF 2019/04/22 18:27 UTC NOAA

TAF KBFL 221725Z 2218/2318 VRB05KT P6SM SKC

Example: see airport list